In Rescue
 
Open Full Screen Window  High Contrast Mode
Wind Gusting 00 knots
03
July 23, 2019 1:36 AM EDT
Weather Information
Wind Direction
  020 °
Wind Speed
  03 kt (3 mph)
Wind Gust
  00 kt (0 mph)
Altimeter
30.06 in
Visibility
10 SM
Temperature
17° C
63° F
Dewpoint
14° C
57° F
Humidity
83%
1hr Rain Fall
00.00 in.
24hr Rain Fall
00.00 in.
Sky Condition
Clear
VFR

METAR KIRS 230536Z AUTO 02003KT 10SM CLR 17/14 A3006 RMK AO2 T01660138

FAA Disclaimer: The data displayed is for advisory purposes only and is not to be used for flight planning or operations.